Погода Палмдейлна неделю

Калифорния, США

01 - 07 сентября
  • 01сентября
    Сегодня
    +14°
    +30°
    Ясно и безоблачно
    ВремяПогодаТемператураВлажностьДавлениеВетер, м/сВероятность осадков
    02:00Ясно и безоблачно+19°C34 %692 мм4.4 м/с2 %
    05:00Ясно и безоблачно+17°C43 %692 мм2.4 м/с2 %
    08:00Ясно и безоблачно+20°C33 %693 мм2.4 м/с2 %
    11:00Ясно и безоблачно+28°C15 %694 мм5.8 м/с2 %
    14:00Ясно и безоблачно+30°C14 %694 мм9.1 м/с2 %
    17:00Ясно и безоблачно+28°C15 %693 мм9.2 м/с2 %
    20:00Ясно и безоблачно+22°C29 %692 мм6.6 м/с2 %
    23:00Ясно и безоблачно+19°C31 %693 мм4.6 м/с2 %
  • 02сентября
    Среда
    +15°
    +29°
    Ясно и безоблачно
    ВремяПогодаТемператураВлажностьДавлениеВетер, м/сВероятность осадков
    02:00Ясно и безоблачно+17°C34 %692 мм4.5 м/с2 %
    05:00Ясно и безоблачно+15°C43 %692 мм2.0 м/с2 %
    08:00Ясно и безоблачно+18°C34 %693 мм2.1 м/с2 %
    11:00Ясно и безоблачно+26°C16 %694 мм4.6 м/с2 %
    14:00Ясно и безоблачно+28°C16 %694 мм8.6 м/с2 %
    17:00Ясно и безоблачно+27°C17 %693 мм8.0 м/с2 %
    20:00Ясно и безоблачно+21°C33 %692 мм6.2 м/с2 %
    23:00Ясно и безоблачно+19°C34 %693 мм4.5 м/с2 %
  • 03сентября
    Четверг
    +15°
    +30°
    Ясно и безоблачно
    ВремяПогодаТемператураВлажностьДавлениеВетер, м/сВероятность осадков
    02:00Ясно и безоблачно+18°C33 %692 мм5.2 м/с2 %
    05:00Ясно и безоблачно+16°C42 %691 мм3.6 м/с2 %
    08:00Ясно и безоблачно+19°C39 %692 мм4.3 м/с2 %
    11:00Ясно и безоблачно+26°C24 %693 мм5.5 м/с2 %
    14:00Ясно и безоблачно+29°C21 %692 мм8.5 м/с2 %
    17:00Ясно и безоблачно+27°C26 %691 мм8.7 м/с2 %
    20:00Ясно и безоблачно+22°C47 %690 мм7.2 м/с2 %
    23:00Ясно и безоблачно+19°C48 %691 мм5.6 м/с2 %
  • 04сентября
    Пятница
    +14°
    +30°
    Ясно и безоблачно
    ВремяПогодаТемператураВлажностьДавлениеВетер, м/сВероятность осадков
    02:00Ясно и безоблачно+18°C50 %691 мм5.0 м/с2 %
    05:00Ясно и безоблачно+16°C61 %690 мм3.4 м/с2 %
    08:00Ясно и безоблачно+18°C47 %692 мм2.7 м/с2 %
    11:00Ясно и безоблачно+26°C24 %693 мм5.0 м/с2 %
    14:00Ясно и безоблачно+30°C20 %692 мм8.5 м/с2 %
    17:00Ясно и безоблачно+28°C25 %692 мм8.2 м/с2 %
    20:00Ясно и безоблачно+22°C51 %691 мм6.9 м/с2 %
    23:00Ясно и безоблачно+19°C46 %692 мм4.5 м/с2 %
  • 05сентября
    Суббота
    +18°
    +32°
    Ясно и безоблачно
    ВремяПогодаТемператураВлажностьДавлениеВетер, м/сВероятность осадков
    02:00Ясно и безоблачно+18°C51 %692 мм3.9 м/с2 %
    05:00Ясно и безоблачно+15°C52 %691 мм1.4 м/с5 %
    08:00Ясно и безоблачно+19°C40 %693 мм1.3 м/с7 %
    11:00Ясно и безоблачно+26°C21 %694 мм2.0 м/с12 %
    14:00Ясно и безоблачно+31°C14 %693 мм5.3 м/с17 %
    17:00Ясно и безоблачно+30°C20 %693 мм8.1 м/с21 %
    20:00Ясно и безоблачно+24°C39 %692 мм6.9 м/с18 %
    23:00Ясно и безоблачно+22°C33 %693 мм4.4 м/с23 %
  • 06сентября
    Воскресенье
    +16°
    +29°
    Практически безоблачно
    ВремяПогодаТемператураВлажностьДавлениеВетер, м/сВероятность осадков
    05:00Облачно с прояснениями+19°C51 %692 мм1.9 м/с38 %
    11:00Практически безоблачно+24°C59 %693 мм2.8 м/с42 %
    17:00Ясно и безоблачно+28°C53 %692 мм4.7 м/с50 %
    23:00Ясно и безоблачно+22°C36 %693 мм2.4 м/с31 %
  • 07сентября
    Понедельник
    +16°
    +31°
    Ясно и безоблачно
    ВремяПогодаТемператураВлажностьДавлениеВетер, м/сВероятность осадков
    05:00Ясно и безоблачно+17°C41 %692 мм2.3 м/с18 %
    11:00Ясно и безоблачно+27°C19 %694 мм3.4 м/с25 %
    17:00Ясно и безоблачно+29°C17 %692 мм4.6 м/с39 %
    23:00Ясно и безоблачно+21°C34 %692 мм2.8 м/с19 %
Мы используем cookies
Соглашаюсь